Chomedey, Canada
Current Conditions -  °F | °C
As of 7:00 AM on Thursday 23 Oct 2014 (Local Time) from CYUL Reporting Station
Broken Clouds Broken Clouds  
Wind Chill: 36°   Ceiling: 4500
Heat Index: 45°   Visibility: 15mi
Dew Point: 34°   Wind: 21mph
Humidity: 66%   Direction: 30°NNE
Pressure: 30.1"   Gusts: NA
Location:  45.55°N, 73.73°W
Report Text: CYUL 231100Z 03018KT 15SM FEW030 BKN045 BKN085 07/01 A3010 RMK SC1SC4AC2 SLP195
Loading
Personal Weather Stations






























Interactive Weather Map
Tropical Storm Tracking
New forecast layout! Learn more

10-Day Weather Forecast

Advertisements
Track Severe Weather on mobile